createdAt,value
2023-02-27T00:01:25.871Z,4.00
2023-02-27T00:03:54.244Z,4.20
2023-02-27T00:06:22.400Z,4.40
2023-02-27T00:08:59.170Z,4.70
2023-02-27T00:11:27.616Z,4.30
2023-02-27T00:13:56.288Z,4.60
2023-02-27T00:16:24.831Z,4.30
2023-02-27T00:18:54.130Z,4.60
2023-02-27T00:21:25.017Z,5.00
2023-02-27T00:23:53.501Z,4.70
2023-02-27T00:26:25.206Z,4.70
2023-02-27T00:28:54.152Z,4.20
2023-02-27T00:31:23.065Z,4.60
2023-02-27T00:33:51.370Z,4.40
2023-02-27T00:36:19.548Z,4.30
2023-02-27T00:38:47.646Z,4.10
2023-02-27T00:41:15.826Z,3.70
2023-02-27T00:43:44.227Z,3.30
2023-02-27T00:46:13.488Z,3.10
2023-02-27T00:48:45.521Z,3.30
2023-02-27T00:51:13.596Z,3.50
2023-02-27T00:53:41.771Z,3.20
2023-02-27T00:56:09.895Z,3.00
2023-02-27T00:58:38.430Z,3.30
2023-02-27T01:01:06.679Z,3.10
2023-02-27T01:03:36.600Z,3.50
2023-02-27T01:06:04.994Z,3.70
2023-02-27T01:08:33.141Z,4.10
2023-02-27T01:11:02.133Z,3.70
2023-02-27T01:13:34.149Z,4.40
2023-02-27T01:16:02.363Z,4.00
2023-02-27T01:18:30.944Z,4.00
2023-02-27T01:20:59.126Z,4.20
2023-02-27T01:23:27.349Z,4.20
2023-02-27T01:25:55.989Z,3.70
2023-02-27T01:28:24.185Z,4.20
2023-02-27T01:30:52.573Z,3.70
2023-02-27T01:33:21.008Z,4.00
2023-02-27T01:35:52.829Z,4.00
2023-02-27T01:38:21.368Z,4.10
2023-02-27T01:40:49.453Z,3.80
2023-02-27T01:43:19.305Z,3.90
2023-02-27T01:45:49.224Z,4.10
2023-02-27T01:48:34.728Z,3.50
2023-02-27T01:51:04.316Z,3.70
2023-02-27T01:53:34.075Z,3.70
2023-02-27T01:56:10.575Z,4.10
2023-02-27T01:58:40.757Z,3.40
2023-02-27T02:01:09.064Z,3.80
2023-02-27T02:03:44.087Z,3.50
2023-02-27T02:06:12.297Z,3.40
2023-02-27T02:08:43.335Z,3.50
2023-02-27T02:11:12.584Z,3.40
2023-02-27T02:13:41.092Z,3.30
2023-02-27T02:16:12.628Z,3.50
2023-02-27T02:18:48.408Z,3.70
2023-02-27T02:21:26.422Z,3.90
2023-02-27T02:23:55.866Z,3.90
2023-02-27T02:26:29.274Z,3.50
2023-02-27T02:29:10.804Z,3.70
2023-02-27T02:31:43.364Z,4.10
2023-02-27T02:34:15.362Z,3.80
2023-02-27T02:36:44.343Z,3.90
2023-02-27T02:39:33.538Z,3.50
2023-02-27T02:42:20.796Z,4.20
2023-02-27T02:44:58.435Z,4.50
2023-02-27T02:50:03.471Z,4.10
2023-02-27T02:52:59.679Z,4.50
2023-02-27T02:55:33.135Z,4.00
2023-02-27T02:58:15.922Z,4.30
2023-02-27T03:00:54.695Z,4.10
2023-02-27T03:03:25.663Z,4.40
2023-02-27T03:06:00.158Z,4.10
2023-02-27T03:08:31.565Z,4.10
2023-02-27T03:11:01.636Z,3.90
2023-02-27T03:13:30.094Z,4.10
2023-02-27T03:16:18.544Z,4.70
2023-02-27T03:18:51.301Z,4.30
2023-02-27T03:21:24.628Z,4.30
2023-02-27T03:23:53.444Z,4.60
2023-02-27T03:26:23.533Z,4.70
2023-02-27T03:28:56.224Z,4.50
2023-02-27T03:31:43.079Z,4.20
2023-02-27T03:34:28.201Z,4.40
2023-02-27T03:36:56.504Z,4.30
2023-02-27T03:39:24.684Z,4.20
2023-02-27T03:42:12.392Z,4.50
2023-02-27T03:45:26.646Z,4.00
2023-02-27T03:47:55.263Z,3.80
2023-02-27T03:50:23.566Z,3.70
2023-02-27T03:52:51.747Z,4.30
2023-02-27T03:55:28.420Z,3.80
2023-02-27T03:57:56.668Z,4.10
2023-02-27T04:00:25.234Z,3.90
2023-02-27T04:02:54.988Z,4.20
2023-02-27T04:05:25.369Z,4.10
2023-02-27T04:08:12.696Z,4.00
2023-02-27T04:10:44.431Z,3.80
2023-02-27T04:13:35.699Z,3.60
2023-02-27T04:16:24.020Z,3.80
2023-02-27T04:19:10.886Z,3.90
2023-02-27T04:21:43.925Z,4.10
2023-02-27T04:24:24.291Z,4.00
2023-02-27T04:26:54.542Z,4.10
2023-02-27T04:29:46.149Z,4.00
2023-02-27T04:32:20.261Z,3.70
2023-02-27T04:36:21.504Z,4.30
2023-02-27T04:38:51.937Z,4.40
2023-02-27T04:41:52.870Z,4.20
2023-02-27T04:44:21.178Z,4.30
2023-02-27T04:46:49.303Z,4.20
2023-02-27T04:49:22.060Z,4.30
2023-02-27T04:52:03.734Z,4.60
2023-02-27T04:54:37.869Z,4.50
2023-02-27T04:57:10.341Z,4.50
2023-02-27T04:59:40.651Z,4.20
2023-02-27T05:02:11.266Z,4.80
2023-02-27T05:04:40.591Z,4.70
2023-02-27T05:07:10.177Z,4.60
2023-02-27T05:09:41.371Z,4.80
2023-02-27T05:12:25.979Z,4.40
2023-02-27T05:15:14.505Z,4.50
2023-02-27T05:18:08.814Z,4.30
2023-02-27T05:20:57.246Z,4.70
2023-02-27T05:23:33.843Z,4.40
2023-02-27T05:26:12.456Z,5.10
2023-02-27T05:28:48.868Z,4.10
2023-02-27T05:31:24.351Z,4.50
2023-02-27T05:33:55.329Z,4.40
2023-02-27T05:36:56.344Z,4.70
2023-02-27T05:39:24.595Z,4.00
2023-02-27T05:42:00.936Z,4.50
2023-02-27T05:44:35.729Z,4.70
2023-02-27T05:47:10.902Z,4.00
2023-02-27T05:49:43.616Z,4.70
2023-02-27T05:52:12.456Z,4.40
2023-02-27T05:54:44.171Z,4.70
2023-02-27T05:57:12.934Z,4.70
2023-02-27T05:59:45.978Z,4.60
2023-02-27T06:02:14.237Z,4.40
2023-02-27T06:04:42.429Z,4.40
2023-02-27T06:07:12.376Z,4.20
2023-02-27T06:09:44.566Z,4.50
2023-02-27T06:12:13.641Z,4.10
2023-02-27T06:14:41.894Z,4.50
2023-02-27T06:17:10.073Z,4.60
2023-02-27T06:19:38.938Z,4.70
2023-02-27T06:22:07.472Z,4.00
2023-02-27T06:24:35.643Z,4.40
2023-02-27T06:27:03.859Z,5.00
2023-02-27T06:29:33.512Z,3.90
2023-02-27T06:32:02.077Z,4.20
2023-02-27T06:34:30.346Z,4.60
2023-02-27T06:36:58.524Z,4.40
2023-02-27T06:39:26.648Z,4.80
2023-02-27T06:41:54.823Z,4.60
2023-02-27T06:44:23.792Z,4.90
2023-02-27T06:46:51.980Z,5.10
2023-02-27T06:49:20.173Z,4.80
2023-02-27T06:51:48.295Z,4.90
2023-02-27T06:54:16.419Z,4.40
2023-02-27T06:56:44.595Z,4.60
2023-02-27T06:59:12.823Z,4.90
2023-02-27T07:01:41.010Z,4.60
2023-02-27T07:04:09.636Z,4.40
2023-02-27T07:07:36.325Z,4.50
2023-02-27T07:09:30.027Z,4.50
2023-02-27T07:11:58.230Z,4.50
2023-02-27T07:14:26.507Z,4.40
2023-02-27T07:16:54.752Z,4.60
2023-02-27T07:19:24.859Z,4.20
2023-02-27T07:21:53.316Z,4.30
2023-02-27T07:24:21.646Z,4.50
2023-02-27T07:26:50.000Z,4.20
2023-02-27T07:29:18.176Z,5.00
2023-02-27T07:31:46.318Z,4.60
2023-02-27T07:34:15.807Z,4.10
2023-02-27T07:36:43.988Z,5.30
2023-02-27T07:39:12.623Z,4.40
2023-02-27T07:41:40.832Z,4.60
2023-02-27T07:44:11.549Z,5.10
2023-02-27T07:46:39.957Z,5.00
2023-02-27T07:49:08.764Z,4.70
2023-02-27T07:51:36.944Z,4.50
2023-02-27T07:54:05.268Z,4.70
2023-02-27T07:56:37.293Z,4.70
2023-02-27T07:59:06.738Z,4.70
2023-02-27T08:01:34.946Z,4.60
2023-02-27T08:04:08.679Z,5.20
2023-02-27T08:06:37.531Z,4.70
2023-02-27T08:09:06.257Z,4.20
2023-02-27T08:11:34.932Z,4.50
2023-02-27T08:14:03.439Z,4.80
2023-02-27T08:16:33.382Z,4.40
2023-02-27T08:19:01.884Z,5.20
2023-02-27T08:21:30.656Z,4.70
2023-02-27T08:23:59.101Z,4.90
2023-02-27T08:26:27.593Z,5.10
2023-02-27T08:28:57.261Z,5.20
2023-02-27T08:31:25.723Z,4.60
2023-02-27T08:34:04.543Z,5.30
2023-02-27T08:36:38.279Z,5.60
2023-02-27T08:39:07.261Z,4.90
2023-02-27T08:41:35.848Z,5.30
2023-02-27T08:44:04.172Z,4.60
2023-02-27T08:46:32.906Z,4.60
2023-02-27T08:49:01.266Z,4.30
2023-02-27T08:51:30.143Z,4.90
2023-02-27T08:53:59.305Z,4.30
2023-02-27T08:56:28.265Z,4.40
2023-02-27T08:58:56.903Z,4.20
2023-02-27T09:01:28.807Z,5.00
2023-02-27T09:03:57.791Z,4.10
2023-02-27T09:06:29.140Z,4.40
2023-02-27T09:08:58.426Z,4.60
2023-02-27T09:11:27.193Z,4.60
2023-02-27T09:13:55.769Z,4.40
2023-02-27T09:16:24.614Z,5.00
2023-02-27T09:18:56.533Z,4.60
2023-02-27T09:21:25.026Z,4.30
2023-02-27T09:23:54.326Z,3.70
2023-02-27T09:26:39.691Z,4.20
2023-02-27T09:29:10.718Z,3.70
2023-02-27T09:31:39.169Z,3.50
2023-02-27T09:34:07.299Z,3.90
2023-02-27T09:36:35.505Z,3.50
2023-02-27T09:39:03.670Z,3.90
2023-02-27T09:41:50.977Z,3.60
2023-02-27T09:44:36.430Z,3.40
2023-02-27T09:47:13.571Z,3.70
2023-02-27T09:49:48.517Z,3.30
2023-02-27T09:52:16.844Z,3.40
2023-02-27T09:54:44.987Z,3.20
2023-02-27T09:57:15.467Z,3.30
2023-02-27T09:59:55.497Z,3.10
2023-02-27T10:02:33.190Z,3.40
2023-02-27T10:05:16.679Z,3.20
2023-02-27T10:07:49.261Z,3.10
2023-02-27T10:10:26.678Z,3.80
2023-02-27T10:13:00.947Z,3.50
2023-02-27T10:15:39.348Z,3.80
2023-02-27T10:18:27.461Z,3.60
2023-02-27T10:20:57.371Z,3.40
2023-02-27T10:23:34.268Z,3.20
2023-02-27T10:26:02.367Z,2.80
2023-02-27T10:28:30.697Z,2.60
2023-02-27T10:31:03.267Z,2.90
2023-02-27T10:33:36.022Z,3.00
2023-02-27T10:36:14.094Z,2.70
2023-02-27T10:38:53.079Z,3.10
2023-02-27T10:41:21.188Z,3.10
2023-02-27T10:43:51.016Z,3.10
2023-02-27T10:46:20.863Z,3.30
2023-02-27T10:48:49.002Z,3.10
2023-02-27T10:51:22.987Z,2.50
2023-02-27T10:53:52.969Z,2.50
2023-02-27T10:56:25.986Z,2.60
2023-02-27T10:59:07.298Z,2.60
2023-02-27T11:01:42.959Z,2.60
2023-02-27T11:04:12.081Z,2.70
2023-02-27T11:06:40.688Z,2.70
2023-02-27T11:09:18.112Z,3.00
2023-02-27T11:11:46.972Z,2.30
2023-02-27T11:14:20.489Z,3.00
2023-02-27T11:16:49.992Z,2.60
2023-02-27T11:19:37.961Z,2.80
2023-02-27T11:22:07.283Z,2.60
2023-02-27T11:24:35.706Z,2.60
2023-02-27T11:27:05.506Z,2.20
2023-02-27T11:29:34.273Z,2.30
2023-02-27T11:32:02.892Z,2.30
2023-02-27T11:34:38.919Z,2.20
2023-02-27T11:37:07.931Z,3.60
2023-02-27T11:39:53.011Z,2.70
2023-02-27T11:42:21.030Z,2.70
2023-02-27T11:45:00.162Z,2.70
2023-02-27T11:47:31.457Z,2.30
2023-02-27T11:50:02.936Z,2.30
2023-02-27T11:52:37.129Z,2.40
2023-02-27T11:55:05.895Z,2.60
2023-02-27T11:57:38.759Z,2.80
2023-02-27T12:00:26.618Z,2.80
2023-02-27T12:03:15.059Z,2.60
2023-02-27T12:05:47.239Z,2.90
2023-02-27T12:08:28.548Z,2.60
2023-02-27T12:11:12.424Z,2.40
2023-02-27T12:13:42.541Z,2.70
2023-02-27T12:16:16.617Z,2.80
2023-02-27T12:18:51.106Z,3.10
2023-02-27T12:21:27.347Z,3.10
2023-02-27T12:23:57.264Z,2.90
2023-02-27T12:26:25.486Z,2.80
2023-02-27T12:28:55.096Z,2.80
2023-02-27T12:31:27.003Z,2.90
2023-02-27T12:33:56.754Z,2.90
2023-02-27T12:36:24.861Z,3.10
2023-02-27T12:38:53.819Z,3.20
2023-02-27T12:41:37.239Z,3.30
2023-02-27T12:44:12.261Z,3.00
2023-02-27T12:46:41.380Z,3.60
2023-02-27T12:49:14.063Z,3.20
2023-02-27T12:51:45.698Z,3.30
2023-02-27T12:54:16.177Z,3.30
2023-02-27T12:56:44.349Z,3.20
2023-02-27T12:59:31.602Z,3.10
2023-02-27T13:02:18.653Z,3.00
2023-02-27T13:04:48.305Z,2.90
2023-02-27T13:07:34.126Z,3.60
2023-02-27T13:10:04.384Z,3.20
2023-02-27T13:12:52.215Z,3.30
2023-02-27T13:15:29.199Z,3.20
2023-02-27T13:18:06.949Z,3.70
2023-02-27T13:20:46.777Z,3.20
2023-02-27T13:23:31.127Z,3.10
2023-02-27T13:25:59.613Z,3.10
2023-02-27T13:28:28.276Z,3.20
2023-02-27T13:31:05.914Z,3.00
2023-02-27T13:36:24.205Z,2.90
2023-02-27T13:38:53.622Z,3.20
2023-02-27T13:41:24.782Z,3.40
2023-02-27T13:43:54.251Z,3.30
2023-02-27T13:46:29.204Z,2.80
2023-02-27T13:49:10.728Z,3.00
2023-02-27T13:51:45.096Z,2.90
2023-02-27T13:54:16.436Z,3.00
2023-02-27T13:57:00.325Z,3.00
2023-02-27T13:59:41.061Z,3.10
2023-02-27T14:02:12.083Z,3.00
2023-02-27T14:04:51.056Z,3.10
2023-02-27T14:07:21.603Z,3.80
2023-02-27T14:09:50.705Z,3.90
2023-02-27T14:12:43.975Z,3.50
2023-02-27T14:15:17.520Z,3.80
2023-02-27T14:18:15.752Z,3.00
2023-02-27T14:20:49.730Z,3.30
2023-02-27T14:23:18.740Z,3.90
2023-02-27T14:25:47.225Z,3.30
2023-02-27T14:28:21.209Z,3.30
2023-02-27T14:30:54.365Z,3.60
2023-02-27T14:33:37.621Z,3.10
2023-02-27T14:36:09.317Z,3.90
2023-02-27T14:38:39.263Z,3.50
2023-02-27T14:41:09.890Z,3.70
2023-02-27T14:43:39.554Z,3.80
2023-02-27T14:46:16.684Z,3.40
2023-02-27T14:48:45.000Z,3.10
2023-02-27T14:51:13.225Z,3.80
2023-02-27T14:53:41.889Z,3.30
2023-02-27T14:56:19.230Z,3.50
2023-02-27T14:58:55.578Z,3.70
2023-02-27T15:01:34.444Z,3.60
2023-02-27T15:04:02.644Z,3.60
2023-02-27T15:06:44.396Z,3.80
2023-02-27T15:09:23.259Z,3.60
2023-02-27T15:12:02.969Z,3.00
2023-02-27T15:14:36.555Z,3.40
2023-02-27T15:17:15.303Z,3.90
2023-02-27T15:20:01.658Z,3.90
2023-02-27T15:22:39.527Z,3.10
2023-02-27T15:25:25.962Z,3.30
2023-02-27T15:27:55.368Z,3.30
2023-02-27T15:30:24.130Z,2.90
2023-02-27T15:32:55.748Z,3.00
2023-02-27T15:35:25.106Z,3.20
2023-02-27T15:37:54.651Z,3.40
2023-02-27T15:40:25.769Z,3.40
2023-02-27T15:42:54.049Z,3.20
2023-02-27T15:45:24.502Z,3.80
2023-02-27T15:47:52.734Z,3.50
2023-02-27T15:50:21.162Z,3.60
2023-02-27T15:52:53.566Z,3.90
2023-02-27T15:55:23.635Z,4.20
2023-02-27T15:58:02.778Z,3.90
2023-02-27T16:00:32.824Z,3.50
2023-02-27T16:03:01.036Z,3.40
2023-02-27T16:05:31.182Z,3.60
2023-02-27T16:07:59.745Z,3.60
2023-02-27T16:10:35.854Z,3.40
2023-02-27T16:13:24.512Z,3.50
2023-02-27T16:16:19.296Z,2.90
2023-02-27T16:18:50.336Z,3.00
2023-02-27T16:21:25.467Z,3.20
2023-02-27T16:23:54.187Z,2.90
2023-02-27T16:26:31.002Z,2.80
2023-02-27T16:29:00.293Z,3.20
2023-02-27T16:31:37.257Z,3.10
2023-02-27T16:34:28.007Z,2.80
2023-02-27T16:37:04.730Z,3.20
2023-02-27T16:39:33.596Z,3.30
2023-02-27T16:42:02.080Z,2.80
2023-02-27T16:44:30.744Z,2.90
2023-02-27T16:46:59.560Z,2.60
2023-02-27T16:52:16.237Z,3.20
2023-02-27T16:54:44.488Z,3.10
2023-02-27T16:57:14.061Z,3.30
2023-02-27T16:59:44.227Z,3.40
2023-02-27T17:02:13.475Z,3.70
2023-02-27T17:04:47.055Z,3.60
2023-02-27T17:07:16.331Z,2.90
2023-02-27T17:09:45.034Z,3.70
2023-02-27T17:12:13.915Z,3.20
2023-02-27T17:14:42.629Z,3.30
2023-02-27T17:17:11.677Z,3.00
2023-02-27T17:19:40.009Z,3.00
2023-02-27T17:22:09.666Z,3.20
2023-02-27T17:24:38.815Z,3.30
2023-02-27T17:27:07.073Z,2.70
2023-02-27T17:29:36.806Z,2.70
2023-02-27T17:32:05.373Z,2.80
2023-02-27T17:34:34.107Z,2.80
2023-02-27T17:37:02.260Z,3.40
2023-02-27T17:39:30.828Z,3.60
2023-02-27T17:41:59.479Z,3.60
2023-02-27T17:44:28.009Z,3.80
2023-02-27T17:46:57.296Z,3.40
2023-02-27T17:49:25.570Z,3.50
2023-02-27T17:51:54.294Z,3.30
2023-02-27T17:54:23.026Z,3.50
2023-02-27T17:56:51.410Z,3.30
2023-02-27T17:59:19.606Z,3.70
2023-02-27T18:01:47.840Z,3.60
2023-02-27T18:04:18.032Z,3.90
2023-02-27T18:06:46.205Z,4.30
2023-02-27T18:09:14.407Z,3.50
2023-02-27T18:11:43.223Z,3.30
2023-02-27T18:14:11.540Z,3.80
2023-02-27T18:16:41.553Z,3.90
2023-02-27T18:19:10.003Z,3.30
2023-02-27T18:21:39.740Z,3.20
2023-02-27T18:24:08.814Z,3.50
2023-02-27T18:26:38.177Z,3.10
2023-02-27T18:29:08.145Z,4.60
2023-02-27T18:31:40.741Z,3.70
2023-02-27T18:34:10.028Z,2.80
2023-02-27T18:36:38.287Z,3.10
2023-02-27T18:39:06.482Z,3.50
2023-02-27T18:41:38.940Z,2.80
2023-02-27T18:44:08.795Z,3.60
2023-02-27T18:46:37.470Z,2.80
2023-02-27T18:49:06.577Z,3.00
2023-02-27T18:51:34.781Z,3.00
2023-02-27T18:54:05.313Z,3.40
2023-02-27T18:56:35.932Z,3.60
2023-02-27T18:59:05.477Z,3.40
2023-02-27T19:01:34.666Z,3.30
2023-02-27T19:04:05.227Z,3.30
2023-02-27T19:06:35.975Z,3.80
2023-02-27T19:09:04.815Z,3.60
2023-02-27T19:11:36.220Z,3.60
2023-02-27T19:14:08.060Z,3.40
2023-02-27T19:16:37.990Z,2.90
2023-02-27T19:19:06.506Z,3.10
2023-02-27T19:21:36.667Z,3.40
2023-02-27T19:24:05.186Z,3.00
2023-02-27T19:26:34.396Z,3.00
2023-02-27T19:29:03.335Z,3.30
2023-02-27T19:31:31.761Z,3.20
2023-02-27T19:34:00.125Z,3.40
2023-02-27T19:36:29.551Z,3.40
2023-02-27T19:38:58.317Z,3.50
2023-02-27T19:41:26.699Z,4.10
2023-02-27T19:43:55.231Z,3.80
2023-02-27T19:46:28.285Z,4.00
2023-02-27T19:48:57.626Z,3.90
2023-02-27T19:51:26.631Z,3.60
2023-02-27T19:53:55.030Z,3.30
2023-02-27T19:56:24.486Z,3.60
2023-02-27T19:58:52.950Z,3.80
2023-02-27T20:01:22.006Z,3.50
2023-02-27T20:03:50.419Z,3.20
2023-02-27T20:06:19.335Z,3.20
2023-02-27T20:08:48.768Z,3.50
2023-02-27T20:11:21.196Z,3.80
2023-02-27T20:13:49.835Z,3.60
2023-02-27T20:16:18.999Z,3.40
2023-02-27T20:18:48.068Z,3.40
2023-02-27T20:21:21.171Z,3.50
2023-02-27T20:23:50.933Z,3.30
2023-02-27T20:26:20.629Z,4.00
2023-02-27T20:28:49.306Z,3.70
2023-02-27T20:31:19.080Z,3.90
2023-02-27T20:33:48.322Z,3.40
2023-02-27T20:36:16.804Z,3.50
2023-02-27T20:38:46.465Z,3.90
2023-02-27T20:41:16.736Z,3.40
2023-02-27T20:43:45.309Z,3.50
2023-02-27T20:46:15.040Z,3.30
2023-02-27T20:48:46.093Z,3.60
2023-02-27T20:51:16.512Z,3.30
2023-02-27T20:53:45.485Z,3.60
2023-02-27T20:56:16.611Z,2.90
2023-02-27T20:58:44.939Z,3.60
2023-02-27T21:01:15.189Z,3.20
2023-02-27T21:03:44.399Z,3.20
2023-02-27T21:06:15.074Z,3.50
2023-02-27T21:08:44.781Z,3.20
2023-02-27T21:11:13.933Z,3.50
2023-02-27T21:13:42.211Z,3.70
2023-02-27T21:16:10.907Z,4.10
2023-02-27T21:18:39.636Z,3.50
2023-02-27T21:21:14.842Z,3.40
2023-02-27T21:23:43.029Z,3.40
2023-02-27T21:26:17.480Z,3.20
2023-02-27T21:28:50.650Z,3.10
2023-02-27T21:31:21.281Z,2.70
2023-02-27T21:33:49.606Z,2.90
2023-02-27T21:36:17.785Z,3.10
2023-02-27T21:39:06.468Z,3.40
2023-02-27T21:41:36.100Z,3.20
2023-02-27T21:44:05.253Z,3.50
2023-02-27T21:46:33.534Z,3.30
2023-02-27T21:49:01.860Z,3.00
2023-02-27T21:51:40.130Z,2.60
2023-02-27T21:54:09.985Z,2.90
2023-02-27T21:56:38.307Z,3.30
2023-02-27T21:59:06.620Z,2.80
2023-02-27T22:01:36.044Z,2.90
2023-02-27T22:04:04.509Z,2.60
2023-02-27T22:06:34.122Z,2.90
2023-02-27T22:09:05.028Z,2.90
2023-02-27T22:11:33.938Z,3.20
2023-02-27T22:14:03.357Z,2.90
2023-02-27T22:16:31.825Z,3.10
2023-02-27T22:19:00.188Z,3.00
2023-02-27T22:21:28.951Z,3.10
2023-02-27T22:23:58.006Z,2.90
2023-02-27T22:26:28.372Z,3.20
2023-02-27T22:28:58.671Z,3.00
2023-02-27T22:31:28.426Z,2.90
2023-02-27T22:33:59.249Z,3.10
2023-02-27T22:36:29.256Z,3.20
2023-02-27T22:38:57.777Z,3.10
2023-02-27T22:41:27.454Z,2.80
2023-02-27T22:43:56.052Z,2.60
2023-02-27T22:46:25.854Z,2.70
2023-02-27T22:49:00.299Z,2.60
2023-02-27T22:51:29.036Z,3.00
2023-02-27T22:53:58.017Z,3.10
2023-02-27T22:56:26.317Z,2.90
2023-02-27T22:58:54.499Z,2.80
2023-02-27T23:01:23.886Z,2.60
2023-02-27T23:03:52.917Z,2.90
2023-02-27T23:06:22.378Z,2.80
2023-02-27T23:08:50.604Z,2.90
2023-02-27T23:11:22.213Z,2.70
2023-02-27T23:13:50.450Z,3.10
2023-02-27T23:16:19.229Z,3.00
2023-02-27T23:18:47.514Z,3.00
2023-02-27T23:21:17.006Z,2.90
2023-02-27T23:23:45.323Z,2.70
2023-02-27T23:26:13.799Z,2.80
2023-02-27T23:28:44.997Z,2.50
2023-02-27T23:31:13.543Z,3.00
2023-02-27T23:33:42.321Z,2.70
2023-02-27T23:36:11.342Z,2.90
2023-02-27T23:38:39.931Z,3.20
2023-02-27T23:41:08.438Z,2.70
2023-02-27T23:43:55.945Z,3.60
2023-02-27T23:46:24.148Z,3.10
2023-02-27T23:48:52.345Z,3.00
2023-02-27T23:51:20.404Z,2.40
2023-02-27T23:53:49.060Z,3.30
2023-02-27T23:56:21.421Z,3.20
2023-02-27T23:58:53.220Z,3.10
